createdAt,value
2019-05-07T00:00:54.979Z,9.79
2019-05-07T00:01:55.428Z,9.84
2019-05-07T00:02:54.938Z,9.66
2019-05-07T00:03:54.974Z,9.62
2019-05-07T00:04:54.944Z,9.66
2019-05-07T00:05:54.924Z,9.72
2019-05-07T00:06:54.936Z,9.55
2019-05-07T00:07:54.882Z,9.58
2019-05-07T00:08:54.927Z,9.48
2019-05-07T00:09:54.967Z,9.54
2019-05-07T00:10:54.856Z,9.55
2019-05-07T00:11:54.876Z,9.62
2019-05-07T00:12:54.836Z,9.66
2019-05-07T00:13:54.859Z,9.74
2019-05-07T00:15:01.232Z,9.68
2019-05-07T00:15:55.799Z,9.50
2019-05-07T00:16:54.798Z,9.61
2019-05-07T00:17:54.786Z,9.61
2019-05-07T00:18:54.821Z,9.59
2019-05-07T00:19:54.763Z,9.44
2019-05-07T00:20:54.867Z,9.36
2019-05-07T00:21:54.739Z,9.43
2019-05-07T00:22:54.732Z,9.47
2019-05-07T00:23:54.719Z,9.43
2019-05-07T00:24:54.736Z,9.46
2019-05-07T00:25:54.700Z,9.40
2019-05-07T00:26:54.690Z,9.55
2019-05-07T00:27:54.669Z,9.41
2019-05-07T00:28:54.656Z,9.22
2019-05-07T00:29:54.680Z,9.26
2019-05-07T00:30:54.670Z,9.31
2019-05-07T00:31:54.657Z,9.16
2019-05-07T00:32:54.619Z,9.02
2019-05-07T00:33:54.599Z,9.06
2019-05-07T00:34:54.597Z,9.08
2019-05-07T00:35:54.626Z,9.16
2019-05-07T00:36:54.573Z,9.11
2019-05-07T00:37:54.555Z,9.21
2019-05-07T00:38:54.548Z,9.19
2019-05-07T00:39:54.532Z,9.19
2019-05-07T00:40:54.561Z,9.29
2019-05-07T00:41:54.517Z,9.29
2019-05-07T00:42:54.509Z,9.43
2019-05-07T00:43:54.501Z,9.40
2019-05-07T00:44:54.487Z,9.32
2019-05-07T00:45:56.838Z,9.36
2019-05-07T00:46:54.463Z,9.41
2019-05-07T00:47:54.453Z,9.25
2019-05-07T00:48:54.436Z,9.29
2019-05-07T00:49:54.435Z,9.23
2019-05-07T00:50:54.424Z,9.26
2019-05-07T00:51:54.446Z,9.22
2019-05-07T00:52:54.390Z,9.25
2019-05-07T00:53:54.386Z,9.16
2019-05-07T00:54:54.381Z,9.16
2019-05-07T00:55:54.364Z,9.13
2019-05-07T00:56:54.378Z,9.10
2019-05-07T00:57:54.345Z,9.21
2019-05-07T00:58:54.334Z,9.14
2019-05-07T00:59:54.317Z,9.04
2019-05-07T01:00:54.309Z,8.99
2019-05-07T01:01:54.330Z,9.03
2019-05-07T01:02:54.298Z,9.08
2019-05-07T01:03:54.281Z,9.18
2019-05-07T01:04:54.267Z,9.22
2019-05-07T01:05:54.251Z,9.19
2019-05-07T01:06:54.266Z,9.18
2019-05-07T01:07:54.237Z,9.08
2019-05-07T01:08:54.224Z,9.16
2019-05-07T01:09:54.206Z,9.08
2019-05-07T01:10:54.197Z,9.23
2019-05-07T01:11:54.223Z,9.19
2019-05-07T01:12:54.175Z,9.22
2019-05-07T01:13:54.183Z,9.23
2019-05-07T01:14:54.157Z,9.21
2019-05-07T01:15:54.145Z,9.06
2019-05-07T01:16:54.164Z,9.06
2019-05-07T01:17:54.131Z,9.02
2019-05-07T01:18:54.111Z,9.00
2019-05-07T01:19:54.098Z,8.81
2019-05-07T01:20:54.092Z,8.81
2019-05-07T01:21:54.114Z,8.91
2019-05-07T01:22:54.747Z,9.02
2019-05-07T01:23:54.055Z,9.08
2019-05-07T01:24:54.044Z,9.11
2019-05-07T01:25:54.043Z,9.18
2019-05-07T01:26:54.056Z,9.19
2019-05-07T01:27:54.023Z,9.22
2019-05-07T01:28:54.009Z,9.26
2019-05-07T01:29:53.989Z,9.32
2019-05-07T01:30:53.980Z,9.34
2019-05-07T01:31:54.026Z,9.21
2019-05-07T01:32:53.954Z,9.19
2019-05-07T01:33:53.952Z,9.08
2019-05-07T01:34:53.943Z,9.14
2019-05-07T01:35:53.934Z,9.18
2019-05-07T01:36:53.952Z,9.23
2019-05-07T01:37:53.902Z,9.18
2019-05-07T01:38:53.894Z,9.19
2019-05-07T01:39:53.886Z,9.13
2019-05-07T01:40:53.884Z,9.21
2019-05-07T01:41:53.856Z,9.16
2019-05-07T01:42:53.875Z,9.19
2019-05-07T01:43:53.839Z,9.22
2019-05-07T01:44:53.830Z,9.21
2019-05-07T01:45:53.845Z,9.08
2019-05-07T01:46:53.810Z,8.97
2019-05-07T01:47:53.840Z,8.88
2019-05-07T01:48:57.138Z,8.82
2019-05-07T01:49:55.132Z,8.81
2019-05-07T01:50:53.761Z,8.66
2019-05-07T01:51:53.770Z,8.81
2019-05-07T01:52:53.779Z,8.81
2019-05-07T01:53:53.733Z,8.73
2019-05-07T01:54:53.722Z,8.73
2019-05-07T01:55:53.705Z,8.69
2019-05-07T01:56:53.696Z,8.76
2019-05-07T01:57:53.736Z,8.84
2019-05-07T01:58:53.680Z,8.84
2019-05-07T01:59:53.667Z,8.79
2019-05-07T02:00:53.658Z,8.76
2019-05-07T02:01:53.648Z,8.73
2019-05-07T02:02:53.685Z,8.84
2019-05-07T02:03:53.627Z,8.82
2019-05-07T02:04:53.616Z,8.91
2019-05-07T02:05:53.596Z,8.95
2019-05-07T02:06:53.588Z,8.85
2019-05-07T02:07:53.587Z,8.94
2019-05-07T02:08:53.606Z,8.99
2019-05-07T02:09:53.581Z,9.03
2019-05-07T02:10:53.550Z,9.08
2019-05-07T02:11:53.531Z,8.88
2019-05-07T02:12:53.524Z,8.89
2019-05-07T02:13:53.559Z,9.00
2019-05-07T02:14:53.507Z,8.87
2019-05-07T02:15:58.531Z,8.79
2019-05-07T02:16:54.483Z,8.82
2019-05-07T02:17:53.468Z,8.73
2019-05-07T02:18:53.483Z,8.88
2019-05-07T02:19:53.451Z,8.88
2019-05-07T02:20:53.442Z,8.89
2019-05-07T02:21:53.429Z,8.87
2019-05-07T02:22:53.419Z,8.91
2019-05-07T02:23:53.437Z,8.85
2019-05-07T02:24:53.397Z,8.95
2019-05-07T02:25:53.379Z,8.99
2019-05-07T02:26:53.375Z,8.87
2019-05-07T02:27:53.378Z,8.95
2019-05-07T02:28:53.360Z,8.87
2019-05-07T02:29:53.354Z,8.91
2019-05-07T02:30:53.680Z,8.95
2019-05-07T02:31:53.314Z,8.89
2019-05-07T02:32:53.970Z,8.85
2019-05-07T02:33:54.039Z,8.92
2019-05-07T02:34:54.575Z,8.94
2019-05-07T02:35:53.590Z,8.89
2019-05-07T02:36:53.992Z,8.92
2019-05-07T02:37:56.595Z,8.87
2019-05-07T02:38:53.377Z,8.88
2019-05-07T02:39:53.375Z,8.92
2019-05-07T02:40:53.569Z,8.99
2019-05-07T02:41:54.201Z,8.95
2019-05-07T02:42:54.188Z,9.00
2019-05-07T02:43:53.860Z,9.02
2019-05-07T02:44:53.527Z,9.08
2019-05-07T02:45:53.565Z,9.16
2019-05-07T02:46:53.190Z,9.10
2019-05-07T02:47:53.152Z,8.97
2019-05-07T02:48:53.775Z,8.85
2019-05-07T02:49:53.835Z,8.71
2019-05-07T02:50:54.030Z,8.71
2019-05-07T02:51:53.307Z,8.76
2019-05-07T02:52:53.880Z,8.78
2019-05-07T02:53:53.749Z,8.79
2019-05-07T02:54:53.896Z,8.79
2019-05-07T02:55:53.061Z,8.87
2019-05-07T02:56:53.443Z,8.91
2019-05-07T02:57:53.984Z,8.79
2019-05-07T02:58:53.062Z,8.78
2019-05-07T02:59:54.328Z,8.87
2019-05-07T03:00:53.349Z,8.89
2019-05-07T03:01:53.708Z,8.89
2019-05-07T03:02:53.301Z,8.91
2019-05-07T03:03:53.070Z,8.89
2019-05-07T03:04:53.334Z,8.91
2019-05-07T03:05:53.758Z,8.89
2019-05-07T03:06:54.325Z,8.92
2019-05-07T03:07:53.703Z,8.94
2019-05-07T03:08:53.564Z,8.97
2019-05-07T03:09:53.815Z,9.06
2019-05-07T03:10:53.012Z,9.14
2019-05-07T03:11:53.202Z,9.19
2019-05-07T03:12:53.789Z,9.19
2019-05-07T03:13:53.780Z,9.21
2019-05-07T03:14:54.001Z,9.23
2019-05-07T03:15:54.069Z,9.22
2019-05-07T03:16:53.543Z,9.19
2019-05-07T03:17:53.779Z,9.25
2019-05-07T03:18:53.353Z,9.23
2019-05-07T03:19:53.399Z,9.16
2019-05-07T03:20:53.505Z,9.21
2019-05-07T03:21:53.895Z,9.06
2019-05-07T03:22:53.770Z,9.06
2019-05-07T03:23:53.872Z,8.79
2019-05-07T03:24:53.072Z,8.67
2019-05-07T03:25:54.226Z,8.63
2019-05-07T03:26:53.573Z,8.55
2019-05-07T03:27:53.580Z,8.56
2019-05-07T03:28:53.955Z,8.67
2019-05-07T03:29:53.473Z,8.76
2019-05-07T03:30:56.868Z,8.73
2019-05-07T03:31:56.317Z,8.74
2019-05-07T03:32:56.151Z,8.76
2019-05-07T03:33:55.882Z,8.82
2019-05-07T03:34:57.439Z,8.70
2019-05-07T03:35:56.223Z,8.71
2019-05-07T03:36:56.342Z,8.71
2019-05-07T03:37:54.667Z,8.58
2019-05-07T03:38:53.722Z,8.66
2019-05-07T03:39:53.769Z,8.48
2019-05-07T03:40:53.163Z,8.58
2019-05-07T03:41:53.206Z,8.73
2019-05-07T03:42:53.557Z,8.63
2019-05-07T03:43:52.805Z,8.61
2019-05-07T03:44:53.752Z,8.55
2019-05-07T03:45:54.019Z,8.53
2019-05-07T03:47:01.589Z,8.56
2019-05-07T03:47:54.153Z,8.74
2019-05-07T03:48:53.142Z,8.78
2019-05-07T03:49:53.591Z,8.87
2019-05-07T03:50:53.119Z,8.85
2019-05-07T03:51:53.011Z,8.91
2019-05-07T03:52:54.374Z,9.02
2019-05-07T03:53:53.677Z,8.97
2019-05-07T03:54:53.988Z,9.03
2019-05-07T03:55:53.931Z,9.03
2019-05-07T03:56:53.015Z,8.99
2019-05-07T03:57:52.860Z,8.97
2019-05-07T03:58:53.022Z,8.99
2019-05-07T03:59:53.344Z,8.99
2019-05-07T04:00:53.553Z,9.06
2019-05-07T04:01:53.788Z,9.14
2019-05-07T04:03:03.692Z,9.03
2019-05-07T04:03:53.249Z,9.04
2019-05-07T04:04:52.882Z,8.87
2019-05-07T04:05:53.141Z,8.94
2019-05-07T04:06:53.758Z,8.73
2019-05-07T04:07:54.017Z,8.76
2019-05-07T04:08:53.251Z,8.69
2019-05-07T04:09:53.459Z,8.67
2019-05-07T04:10:53.814Z,8.66
2019-05-07T04:11:52.967Z,8.64
2019-05-07T04:12:53.362Z,8.52
2019-05-07T04:13:53.529Z,8.61
2019-05-07T04:14:53.364Z,8.53
2019-05-07T04:15:52.671Z,8.61
2019-05-07T04:16:53.437Z,8.71
2019-05-07T04:17:53.795Z,8.76
2019-05-07T04:18:53.025Z,8.61
2019-05-07T04:19:53.268Z,8.56
2019-05-07T04:20:54.062Z,8.42
2019-05-07T04:21:53.429Z,8.52
2019-05-07T04:22:53.632Z,8.48
2019-05-07T04:23:54.143Z,8.41
2019-05-07T04:24:53.220Z,8.52
2019-05-07T04:25:53.078Z,8.55
2019-05-07T04:26:53.669Z,8.64
2019-05-07T04:27:52.730Z,8.66
2019-05-07T04:28:54.133Z,8.63
2019-05-07T04:29:53.224Z,8.53
2019-05-07T04:30:53.313Z,8.49
2019-05-07T04:31:53.316Z,8.45
2019-05-07T04:32:52.988Z,8.52
2019-05-07T04:33:53.358Z,8.51
2019-05-07T04:34:53.150Z,8.52
2019-05-07T04:35:53.799Z,8.66
2019-05-07T04:36:53.463Z,8.60
2019-05-07T04:37:53.302Z,8.81
2019-05-07T04:38:53.272Z,8.71
2019-05-07T04:39:53.724Z,8.76
2019-05-07T04:40:53.829Z,8.69
2019-05-07T04:41:53.067Z,8.76
2019-05-07T04:42:53.916Z,8.69
2019-05-07T04:43:54.072Z,8.81
2019-05-07T04:44:53.973Z,8.79
2019-05-07T04:45:53.732Z,8.84
2019-05-07T04:46:53.273Z,8.81
2019-05-07T04:47:53.838Z,8.89
2019-05-07T04:48:52.865Z,8.95
2019-05-07T04:49:53.474Z,8.82
2019-05-07T04:50:54.158Z,8.91
2019-05-07T04:51:52.932Z,8.85
2019-05-07T04:52:54.020Z,8.82
2019-05-07T04:53:54.089Z,8.91
2019-05-07T04:54:52.821Z,8.78
2019-05-07T04:55:53.652Z,8.76
2019-05-07T04:56:53.174Z,8.91
2019-05-07T04:57:53.366Z,8.97
2019-05-07T04:58:53.062Z,8.95
2019-05-07T04:59:53.362Z,8.94
2019-05-07T05:00:53.744Z,9.10
2019-05-07T05:01:53.231Z,9.10
2019-05-07T05:02:53.089Z,9.08
2019-05-07T05:03:53.986Z,9.19
2019-05-07T05:04:53.101Z,9.32
2019-05-07T05:05:53.193Z,9.32
2019-05-07T05:06:52.864Z,9.40
2019-05-07T05:07:53.322Z,9.44
2019-05-07T05:08:55.310Z,9.34
2019-05-07T05:09:53.252Z,9.37
2019-05-07T05:10:53.804Z,9.41
2019-05-07T05:11:53.062Z,9.46
2019-05-07T05:12:53.689Z,9.41
2019-05-07T05:13:53.212Z,9.40
2019-05-07T05:14:52.423Z,9.47
2019-05-07T05:15:52.773Z,9.58
2019-05-07T05:16:52.472Z,9.54
2019-05-07T05:17:53.962Z,9.55
2019-05-07T05:18:52.059Z,9.64
2019-05-07T05:19:52.536Z,9.68
2019-05-07T05:20:51.933Z,9.69
2019-05-07T05:21:52.825Z,9.72
2019-05-07T05:22:53.190Z,9.59
2019-05-07T05:23:52.352Z,9.74
2019-05-07T05:24:52.740Z,9.73
2019-05-07T05:25:52.238Z,9.74
2019-05-07T05:26:52.537Z,9.82
2019-05-07T05:27:52.403Z,9.79
2019-05-07T05:28:52.515Z,9.87
2019-05-07T05:29:52.019Z,9.91
2019-05-07T05:30:52.788Z,9.86
2019-05-07T05:31:52.897Z,9.86
2019-05-07T05:32:52.026Z,9.94
2019-05-07T05:33:52.673Z,9.89
2019-05-07T05:34:52.038Z,9.91
2019-05-07T05:35:52.530Z,9.89
2019-05-07T05:36:53.198Z,9.97
2019-05-07T05:37:52.085Z,9.98
2019-05-07T05:38:52.861Z,10.01
2019-05-07T05:40:03.304Z,9.99
2019-05-07T05:40:52.346Z,9.98
2019-05-07T05:41:51.816Z,10.02
2019-05-07T05:42:52.447Z,10.04
2019-05-07T05:43:52.759Z,10.13
2019-05-07T05:44:52.462Z,10.23
2019-05-07T05:45:53.018Z,10.31
2019-05-07T05:46:52.482Z,10.25
2019-05-07T05:48:04.014Z,10.37
2019-05-07T05:48:52.199Z,10.40
2019-05-07T05:49:53.283Z,10.46
2019-05-07T05:50:53.581Z,10.44
2019-05-07T05:51:52.514Z,10.41
2019-05-07T05:52:52.051Z,10.35
2019-05-07T05:53:52.408Z,10.40
2019-05-07T05:54:52.860Z,10.41
2019-05-07T05:55:52.785Z,10.37
2019-05-07T05:56:51.991Z,10.38
2019-05-07T05:57:51.947Z,10.37
2019-05-07T05:58:52.732Z,10.53
2019-05-07T05:59:54.428Z,10.60
2019-05-07T06:00:53.024Z,10.57
2019-05-07T06:01:52.115Z,10.60
2019-05-07T06:02:53.192Z,10.64
2019-05-07T06:03:52.015Z,10.72
2019-05-07T06:04:52.789Z,10.78
2019-05-07T06:05:52.269Z,10.84
2019-05-07T06:07:01.162Z,10.97
2019-05-07T06:07:52.173Z,10.93
2019-05-07T06:08:52.484Z,11.00
2019-05-07T06:09:52.755Z,11.04
2019-05-07T06:10:51.876Z,11.17
2019-05-07T06:11:52.044Z,11.10
2019-05-07T06:12:52.293Z,11.11
2019-05-07T06:13:52.692Z,11.10
2019-05-07T06:14:50.920Z,10.99
2019-05-07T06:15:52.225Z,11.08
2019-05-07T06:16:52.618Z,11.02
2019-05-07T06:17:51.897Z,10.89
2019-05-07T06:18:52.557Z,10.79
2019-05-07T06:19:51.864Z,10.86
2019-05-07T06:20:52.271Z,10.89
2019-05-07T06:21:52.625Z,10.71
2019-05-07T06:22:52.869Z,10.72
2019-05-07T06:23:52.795Z,10.59
2019-05-07T06:24:52.154Z,10.53
2019-05-07T06:25:52.310Z,10.53
2019-05-07T06:26:52.232Z,10.31
2019-05-07T06:27:52.589Z,10.30
2019-05-07T06:28:51.903Z,10.25
2019-05-07T06:29:52.405Z,10.25
2019-05-07T06:30:52.732Z,10.28
2019-05-07T06:31:52.728Z,10.40
2019-05-07T06:32:52.305Z,10.46
2019-05-07T06:33:52.305Z,10.26
2019-05-07T06:34:52.283Z,10.38
2019-05-07T06:35:52.070Z,10.46
2019-05-07T06:36:52.614Z,10.34
2019-05-07T06:37:52.209Z,10.42
2019-05-07T06:38:52.990Z,10.48
2019-05-07T06:39:52.946Z,10.44
2019-05-07T06:40:51.919Z,10.46
2019-05-07T06:41:52.555Z,10.53
2019-05-07T06:42:52.347Z,10.46
2019-05-07T06:43:52.112Z,10.51
2019-05-07T06:44:51.895Z,10.59
2019-05-07T06:45:51.931Z,10.74
2019-05-07T06:46:52.624Z,10.76
2019-05-07T06:47:52.042Z,11.02
2019-05-07T06:48:52.682Z,11.14
2019-05-07T06:49:52.329Z,11.19
2019-05-07T06:50:52.262Z,11.26
2019-05-07T06:51:52.671Z,11.57
2019-05-07T06:52:51.901Z,11.66
2019-05-07T06:53:51.890Z,11.72
2019-05-07T06:54:52.327Z,11.84
2019-05-07T06:55:52.102Z,11.95
2019-05-07T06:56:52.359Z,11.97
2019-05-07T06:57:52.861Z,12.09
2019-05-07T06:58:52.479Z,12.12
2019-05-07T06:59:53.012Z,12.17
2019-05-07T07:00:52.723Z,12.20
2019-05-07T07:01:52.804Z,12.36
2019-05-07T07:02:52.351Z,12.39
2019-05-07T07:03:52.578Z,12.45
2019-05-07T07:04:51.981Z,12.45
2019-05-07T07:05:51.859Z,12.57
2019-05-07T07:06:52.462Z,12.57
2019-05-07T07:07:52.547Z,12.78
2019-05-07T07:08:52.519Z,12.85
2019-05-07T07:09:51.933Z,12.93
2019-05-07T07:10:52.104Z,12.83
2019-05-07T07:11:52.426Z,12.87
2019-05-07T07:12:50.328Z,12.90
2019-05-07T07:13:51.997Z,13.00
2019-05-07T07:14:51.791Z,13.05
2019-05-07T07:15:52.206Z,13.05
2019-05-07T07:16:50.274Z,12.98
2019-05-07T07:17:52.298Z,12.93
2019-05-07T07:18:53.095Z,12.79
2019-05-07T07:19:52.309Z,12.78
2019-05-07T07:20:52.308Z,12.91
2019-05-07T07:21:50.234Z,13.19
2019-05-07T07:22:52.065Z,13.41
2019-05-07T07:23:52.277Z,13.52
2019-05-07T07:24:50.161Z,13.72
2019-05-07T07:25:52.224Z,13.78
2019-05-07T07:26:52.644Z,13.86
2019-05-07T07:27:52.077Z,13.79
2019-05-07T07:28:52.359Z,14.08
2019-05-07T07:29:52.289Z,13.86
2019-05-07T07:30:50.103Z,13.49
2019-05-07T07:31:50.133Z,13.86
2019-05-07T07:32:51.917Z,15.06
2019-05-07T07:33:50.106Z,15.83
2019-05-07T07:34:50.060Z,14.89
2019-05-07T07:35:52.048Z,15.04
2019-05-07T07:37:03.066Z,17.33
2019-05-07T07:37:53.021Z,19.22
2019-05-07T07:38:50.007Z,19.96
2019-05-07T07:39:50.399Z,20.77
2019-05-07T07:40:49.997Z,21.52
2019-05-07T07:41:52.092Z,22.60
2019-05-07T07:42:51.940Z,23.80
2019-05-07T07:43:49.953Z,25.03
2019-05-07T07:44:51.813Z,25.98
2019-05-07T07:45:49.943Z,26.90
2019-05-07T07:46:49.938Z,27.70
2019-05-07T07:47:49.970Z,28.39
2019-05-07T07:49:04.289Z,27.85
2019-05-07T07:49:52.670Z,26.90
2019-05-07T07:50:49.887Z,26.18
2019-05-07T07:51:52.414Z,27.18
2019-05-07T07:52:49.890Z,25.36
2019-05-07T07:53:51.916Z,26.36
2019-05-07T07:54:49.856Z,25.98
2019-05-07T07:55:49.834Z,24.42
2019-05-07T07:56:53.161Z,23.27
2019-05-07T07:57:52.074Z,22.23
2019-05-07T07:58:49.829Z,22.43
2019-05-07T07:59:49.794Z,22.96
2019-05-07T08:00:49.785Z,24.98
2019-05-07T08:01:49.767Z,26.44
2019-05-07T08:02:49.786Z,27.55
2019-05-07T08:03:49.778Z,27.10
2019-05-07T08:04:49.820Z,25.32
2019-05-07T08:05:51.749Z,24.33
2019-05-07T08:06:49.721Z,26.18
2019-05-07T08:07:49.707Z,27.42
2019-05-07T08:08:49.753Z,28.47
2019-05-07T08:09:51.892Z,29.42
2019-05-07T08:10:51.852Z,30.44
2019-05-07T08:11:49.670Z,31.28
2019-05-07T08:12:49.658Z,31.02
2019-05-07T08:13:49.646Z,29.12
2019-05-07T08:14:51.775Z,27.52
2019-05-07T08:15:51.935Z,26.58
2019-05-07T08:16:49.611Z,25.13
2019-05-07T08:17:49.608Z,23.86
2019-05-07T08:18:51.950Z,22.87
2019-05-07T08:19:51.786Z,22.17
2019-05-07T08:20:49.579Z,21.12
2019-05-07T08:21:49.561Z,22.59
2019-05-07T08:22:49.552Z,24.66
2019-05-07T08:23:49.543Z,26.05
2019-05-07T08:24:51.767Z,27.48
2019-05-07T08:25:49.526Z,28.63
2019-05-07T08:26:51.785Z,29.66
2019-05-07T08:27:49.500Z,30.61
2019-05-07T08:28:49.596Z,31.40
2019-05-07T08:29:49.524Z,32.27
2019-05-07T08:30:49.512Z,33.04
2019-05-07T08:31:51.607Z,32.21
2019-05-07T08:32:49.457Z,30.10
2019-05-07T08:33:51.729Z,28.32
2019-05-07T08:34:49.437Z,26.96
2019-05-07T08:35:49.484Z,25.46
2019-05-07T08:36:49.437Z,24.05
2019-05-07T08:37:51.730Z,23.12
2019-05-07T08:38:49.424Z,22.87
2019-05-07T08:39:49.426Z,21.99
2019-05-07T08:40:49.407Z,24.10
2019-05-07T08:41:49.392Z,25.98
2019-05-07T08:42:49.348Z,27.74
2019-05-07T08:43:49.346Z,29.14
2019-05-07T08:44:49.333Z,29.86
2019-05-07T08:45:49.363Z,30.28
2019-05-07T08:46:49.331Z,31.34
2019-05-07T08:47:49.297Z,32.34
2019-05-07T08:48:49.293Z,30.53
2019-05-07T08:49:49.301Z,28.62
2019-05-07T08:50:49.273Z,27.60
2019-05-07T08:51:51.856Z,28.59
2019-05-07T08:52:49.250Z,26.66
2019-05-07T08:53:49.239Z,27.48
2019-05-07T08:54:49.228Z,26.62
2019-05-07T08:55:49.237Z,27.07
2019-05-07T08:56:49.258Z,26.53
2019-05-07T08:57:49.207Z,28.32
2019-05-07T08:58:49.196Z,29.45
2019-05-07T09:00:00.091Z,27.89
2019-05-07T09:00:52.155Z,27.83
2019-05-07T09:01:49.193Z,28.82
2019-05-07T09:02:49.161Z,28.76
2019-05-07T09:03:49.158Z,29.81
2019-05-07T09:04:49.140Z,31.00
2019-05-07T09:05:49.120Z,32.26
2019-05-07T09:06:49.114Z,33.04
2019-05-07T09:07:49.171Z,33.50
2019-05-07T09:08:49.115Z,33.62
2019-05-07T09:09:49.089Z,34.11
2019-05-07T09:10:49.087Z,33.36
2019-05-07T09:11:49.073Z,33.67
2019-05-07T09:12:49.099Z,33.96
2019-05-07T09:13:49.050Z,34.55
2019-05-07T09:14:49.041Z,34.25
2019-05-07T09:15:49.041Z,33.47
2019-05-07T09:16:49.054Z,31.92
2019-05-07T09:17:49.064Z,31.59
2019-05-07T09:18:49.013Z,28.72
2019-05-07T09:19:52.219Z,27.11
2019-05-07T09:20:49.987Z,27.14
2019-05-07T09:21:48.983Z,25.59
2019-05-07T09:22:49.028Z,23.91
2019-05-07T09:23:48.956Z,25.47
2019-05-07T09:24:48.949Z,26.16
2019-05-07T09:25:48.945Z,24.35
2019-05-07T09:26:48.949Z,23.03
2019-05-07T09:27:48.946Z,21.80
2019-05-07T09:28:48.915Z,20.78
2019-05-07T09:29:48.917Z,20.40
2019-05-07T09:30:48.894Z,20.14
2019-05-07T09:31:48.883Z,19.77
2019-05-07T09:32:48.924Z,19.62
2019-05-07T09:33:48.864Z,19.74
2019-05-07T09:34:48.857Z,20.88
2019-05-07T09:35:48.848Z,23.39
2019-05-07T09:36:48.835Z,25.58
2019-05-07T09:37:48.848Z,27.55
2019-05-07T09:38:56.731Z,28.98
2019-05-07T09:39:51.438Z,30.40
2019-05-07T09:40:48.917Z,31.00
2019-05-07T09:41:48.893Z,31.61
2019-05-07T09:42:48.868Z,31.34
2019-05-07T09:43:48.770Z,30.46
2019-05-07T09:44:48.755Z,30.54
2019-05-07T09:45:48.784Z,28.81
2019-05-07T09:46:48.746Z,27.77
2019-05-07T09:47:48.747Z,27.90
2019-05-07T09:48:48.763Z,27.18
2019-05-07T09:50:01.975Z,24.74
2019-05-07T09:50:49.701Z,23.17
2019-05-07T09:51:48.692Z,22.18
2019-05-07T09:52:48.767Z,21.25
2019-05-07T09:53:48.728Z,20.14
2019-05-07T09:54:48.662Z,19.71
2019-05-07T09:55:48.652Z,19.62
2019-05-07T09:56:48.638Z,22.15
2019-05-07T09:57:48.701Z,24.57
2019-05-07T09:58:48.679Z,26.45
2019-05-07T09:59:48.692Z,28.08
2019-05-07T10:00:48.641Z,29.20
2019-05-07T10:01:48.595Z,29.94
2019-05-07T10:02:48.590Z,30.69
2019-05-07T10:03:48.592Z,30.94
2019-05-07T10:04:48.587Z,31.64
2019-05-07T10:05:48.561Z,32.12
2019-05-07T10:06:48.542Z,31.12
2019-05-07T10:07:48.553Z,31.54
2019-05-07T10:08:48.579Z,30.96
2019-05-07T10:09:48.545Z,31.21
2019-05-07T10:10:50.638Z,31.65
2019-05-07T10:11:48.504Z,32.23
2019-05-07T10:12:48.503Z,32.92
2019-05-07T10:13:48.497Z,33.36
2019-05-07T10:14:48.517Z,33.46
2019-05-07T10:15:48.468Z,33.79
2019-05-07T10:16:48.459Z,34.01
2019-05-07T10:17:48.448Z,33.80
2019-05-07T10:18:48.467Z,32.67
2019-05-07T10:19:48.481Z,32.00
2019-05-07T10:20:48.438Z,29.78
2019-05-07T10:21:48.436Z,27.98
2019-05-07T10:22:48.436Z,26.25
2019-05-07T10:23:48.400Z,24.91
2019-05-07T10:24:48.424Z,23.73
2019-05-07T10:25:48.396Z,22.94
2019-05-07T10:26:48.380Z,22.30
2019-05-07T10:27:48.363Z,21.95
2019-05-07T10:28:48.372Z,22.17
2019-05-07T10:29:48.410Z,22.50
2019-05-07T10:30:48.338Z,22.55
2019-05-07T10:31:48.344Z,22.20
2019-05-07T10:32:48.327Z,21.77
2019-05-07T10:33:48.319Z,21.77
2019-05-07T10:34:48.303Z,21.50
2019-05-07T10:35:48.318Z,21.21
2019-05-07T10:36:48.275Z,20.44
2019-05-07T10:37:48.266Z,19.59
2019-05-07T10:38:48.266Z,19.29
2019-05-07T10:39:48.252Z,18.65
2019-05-07T10:40:48.261Z,18.84
2019-05-07T10:41:48.232Z,18.81
2019-05-07T10:42:48.259Z,18.40
2019-05-07T10:43:48.247Z,18.50
2019-05-07T10:44:48.224Z,18.77
2019-05-07T10:45:48.225Z,18.93
2019-05-07T10:46:48.181Z,19.19
2019-05-07T10:47:48.170Z,18.92
2019-05-07T10:48:48.153Z,18.71
2019-05-07T10:49:48.152Z,18.44
2019-05-07T10:50:48.161Z,18.50
2019-05-07T10:51:48.129Z,18.01
2019-05-07T10:52:48.117Z,18.13
2019-05-07T10:53:48.137Z,18.47
2019-05-07T10:54:59.017Z,18.84
2019-05-07T10:55:49.214Z,19.09
2019-05-07T10:56:48.106Z,19.26
2019-05-07T10:57:48.086Z,19.62
2019-05-07T10:58:48.051Z,19.81
2019-05-07T10:59:48.039Z,20.07
2019-05-07T11:00:48.025Z,20.21
2019-05-07T11:01:48.045Z,20.29
2019-05-07T11:02:48.009Z,20.10
2019-05-07T11:03:47.997Z,20.04
2019-05-07T11:04:48.001Z,19.89
2019-05-07T11:05:47.981Z,19.95
2019-05-07T11:06:47.987Z,20.07
2019-05-07T11:07:47.971Z,20.04
2019-05-07T11:08:47.939Z,20.03
2019-05-07T11:09:47.934Z,20.06
2019-05-07T11:10:47.917Z,20.07
2019-05-07T11:11:47.940Z,19.94
2019-05-07T11:12:47.901Z,19.85
2019-05-07T11:13:47.893Z,19.89
2019-05-07T11:14:47.874Z,19.59
2019-05-07T11:15:47.881Z,19.49
2019-05-07T11:16:47.895Z,18.74
2019-05-07T11:17:47.848Z,18.65
2019-05-07T11:18:47.838Z,18.77
2019-05-07T11:19:47.824Z,18.78
2019-05-07T11:20:50.449Z,18.77
2019-05-07T11:21:48.831Z,18.59
2019-05-07T11:22:47.835Z,18.33
2019-05-07T11:23:47.790Z,18.28
2019-05-07T11:24:47.780Z,18.19
2019-05-07T11:25:47.764Z,18.07
2019-05-07T11:26:47.753Z,18.03
2019-05-07T11:27:47.767Z,17.92
2019-05-07T11:28:47.767Z,17.82
2019-05-07T11:29:47.722Z,17.78
2019-05-07T11:30:47.738Z,17.71
2019-05-07T11:31:47.695Z,17.79
2019-05-07T11:32:47.722Z,17.83
2019-05-07T11:33:47.737Z,17.89
2019-05-07T11:34:47.662Z,17.97
2019-05-07T11:35:47.656Z,17.79
2019-05-07T11:36:47.653Z,17.72
2019-05-07T11:37:47.636Z,17.70
2019-05-07T11:38:47.666Z,17.78
2019-05-07T11:39:47.609Z,17.92
2019-05-07T11:40:47.604Z,18.04
2019-05-07T11:41:47.587Z,17.82
2019-05-07T11:42:47.578Z,17.80
2019-05-07T11:43:47.604Z,17.51
2019-05-07T11:44:47.563Z,17.51
2019-05-07T11:45:47.546Z,16.90
2019-05-07T11:46:47.535Z,16.56
2019-05-07T11:47:47.530Z,16.64
2019-05-07T11:48:47.545Z,16.69
2019-05-07T11:49:47.509Z,16.64
2019-05-07T11:51:00.467Z,16.81
2019-05-07T11:51:48.506Z,16.56
2019-05-07T11:52:47.471Z,16.51
2019-05-07T11:53:47.484Z,16.51
2019-05-07T11:54:47.523Z,16.53
2019-05-07T11:55:47.450Z,16.54
2019-05-07T11:56:47.433Z,16.51
2019-05-07T11:57:47.426Z,16.58
2019-05-07T11:58:47.411Z,16.68
2019-05-07T11:59:47.424Z,16.72
2019-05-07T12:00:47.391Z,16.78
2019-05-07T12:01:48.118Z,16.93
2019-05-07T12:02:47.383Z,16.91
2019-05-07T12:03:47.352Z,16.94
2019-05-07T12:04:47.370Z,17.02
2019-05-07T12:05:47.329Z,17.04
2019-05-07T12:06:47.326Z,17.09
2019-05-07T12:07:47.321Z,17.34
2019-05-07T12:08:51.765Z,17.52
2019-05-07T12:09:47.322Z,17.45
2019-05-07T12:10:47.284Z,17.27
2019-05-07T12:11:47.268Z,17.34
2019-05-07T12:12:47.258Z,17.39
2019-05-07T12:13:47.246Z,17.46
2019-05-07T12:14:47.269Z,17.29
2019-05-07T12:15:47.229Z,17.05
2019-05-07T12:16:47.228Z,16.68
2019-05-07T12:17:47.203Z,16.57
2019-05-07T12:18:47.194Z,16.43
2019-05-07T12:19:47.190Z,16.09
2019-05-07T12:20:47.241Z,16.16
2019-05-07T12:21:47.166Z,16.33
2019-05-07T12:22:47.164Z,16.47
2019-05-07T12:23:47.150Z,16.46
2019-05-07T12:24:47.135Z,16.50
2019-05-07T12:25:47.146Z,16.71
2019-05-07T12:26:47.117Z,16.72
2019-05-07T12:27:47.103Z,16.57
2019-05-07T12:28:47.120Z,16.51
2019-05-07T12:29:47.077Z,16.56
2019-05-07T12:30:47.097Z,16.76
2019-05-07T12:31:47.050Z,16.99
2019-05-07T12:32:47.051Z,17.12
2019-05-07T12:33:47.034Z,17.29
2019-05-07T12:34:47.048Z,17.11
2019-05-07T12:35:47.019Z,17.23
2019-05-07T12:36:47.027Z,17.39
2019-05-07T12:37:49.539Z,17.23
2019-05-07T12:38:47.019Z,17.09
2019-05-07T12:39:46.971Z,17.01
2019-05-07T12:40:46.973Z,17.04
2019-05-07T12:41:46.980Z,16.87
2019-05-07T12:42:46.942Z,16.90
2019-05-07T12:43:46.926Z,16.94
2019-05-07T12:44:46.913Z,16.97
2019-05-07T12:45:46.898Z,17.12
2019-05-07T12:46:46.917Z,17.23
2019-05-07T12:47:46.884Z,17.26
2019-05-07T12:48:46.912Z,17.38
2019-05-07T12:49:46.868Z,16.93
2019-05-07T12:50:46.852Z,17.02
2019-05-07T12:51:46.880Z,17.04
2019-05-07T12:52:46.834Z,16.96
2019-05-07T12:53:46.835Z,16.84
2019-05-07T12:54:46.813Z,16.79
2019-05-07T12:55:46.804Z,16.74
2019-05-07T12:56:46.783Z,16.53
2019-05-07T12:57:46.817Z,16.50
2019-05-07T12:58:46.761Z,16.47
2019-05-07T12:59:49.537Z,16.26
2019-05-07T13:00:46.770Z,15.90
2019-05-07T13:01:46.733Z,15.75
2019-05-07T13:02:46.757Z,15.54
2019-05-07T13:03:46.730Z,15.86